Time;durP1;ratioP1;P1;durP2;ratioP2;P2;SDS_P1;SDS_P2;PMS_P1;PMS_P2;Temp;Humidity;BMP_temperature;BMP_pressure;BME280_temperature;BME280_humidity;BME280_pressure;Samples;Min_cycle;Max_cycle;Signal;HPM_P1;HPM_P2
2023/12/09 00:02:32;;;;;;;1999.90;999.90;;;;;;;13.00;77.27;100946.38;10420092;28;20045;-64
2023/12/09 00:07:34;;;;;;;1999.90;999.90;;;;;;;12.80;76.95;100945.03;10419954;28;20052;-64
2023/12/09 00:12:37;;;;;;;1999.90;999.90;;;;;;;13.38;74.82;100936.00;10419806;28;20060;-64
2023/12/09 00:17:39;;;;;;;1999.90;999.90;;;;;;;13.45;75.70;100939.06;10419577;28;20061;-64
2023/12/09 00:22:42;;;;;;;1999.90;999.90;;;;;;;12.91;75.13;100939.09;10419177;28;20045;-64
2023/12/09 00:27:44;;;;;;;1999.90;999.90;;;;;;;12.97;76.01;100939.53;10418926;28;20049;-64
2023/12/09 00:32:47;;;;;;;1999.90;999.90;;;;;;;13.32;74.63;100935.56;10418978;28;20162;-64
2023/12/09 00:37:50;;;;;;;1999.90;999.90;;;;;;;12.68;76.00;100935.34;10418734;28;20088;-65
2023/12/09 00:42:52;;;;;;;1999.90;999.90;;;;;;;12.81;76.31;100938.84;10418747;28;20049;-65
2023/12/09 00:47:55;;;;;;;1999.90;999.90;;;;;;;13.45;73.38;100941.69;10417501;28;20049;-64
2023/12/09 00:52:57;;;;;;;1999.90;999.90;;;;;;;13.26;75.08;100943.81;10418168;28;20061;-64
2023/12/09 00:58:00;;;;;;;1999.90;999.90;;;;;;;12.88;74.85;100944.53;10417794;28;20383;-64
2023/12/09 01:03:02;;;;;;;1999.90;999.90;;;;;;;13.43;74.65;100940.09;10417731;28;20053;-64
2023/12/09 01:08:04;;;;;;;1999.90;999.90;;;;;;;12.64;78.16;100956.53;10417819;28;20092;-64
2023/12/09 01:13:07;;;;;;;1999.90;999.90;;;;;;;12.69;76.89;100947.50;10417394;28;20407;-64
2023/12/09 01:18:09;;;;;;;1999.90;999.90;;;;;;;12.83;77.98;100936.97;10416987;28;20496;-64
2023/12/09 01:23:13;;;;;;;1999.90;999.90;;;;;;;12.76;76.14;100927.78;10417151;28;20049;-64
2023/12/09 01:28:15;;;;;;;1999.90;999.90;;;;;;;12.77;75.75;100929.47;10416608;28;20081;-64
2023/12/09 01:33:17;;;;;;;1999.90;999.90;;;;;;;12.90;75.95;100933.00;10416171;28;20049;-64
2023/12/09 01:38:20;;;;;;;1999.90;999.90;;;;;;;13.03;73.22;100922.53;10415074;28;20441;-64
2023/12/09 01:43:25;;;;;;;1999.90;999.90;;;;;;;12.35;78.21;100933.88;10416229;28;20139;-64
2023/12/09 01:48:28;;;;;;;1999.90;999.90;;;;;;;12.50;77.04;100934.72;10416088;28;20059;-64
2023/12/09 01:53:31;;;;;;;1999.90;999.90;;;;;;;12.57;74.62;100923.69;10415964;28;20079;-64
2023/12/09 01:58:35;;;;;;;1999.90;999.90;;;;;;;13.12;74.37;100921.91;10415620;28;20041;-64
2023/12/09 02:03:38;;;;;;;1999.90;999.90;;;;;;;12.54;77.86;100918.66;10414534;28;20056;-64
2023/12/09 02:08:41;;;;;;;1999.90;999.90;;;;;;;11.97;80.04;100922.22;10414482;28;20099;-64
2023/12/09 02:13:57;;;;;;;1999.90;999.90;;;;;;;12.91;76.49;100902.28;10414132;28;20133;-64
2023/12/09 02:19:01;;;;;;;1999.90;999.90;;;;;;;12.16;77.12;100900.09;10415404;28;20046;-64
2023/12/09 02:24:04;;;;;;;1999.90;999.90;;;;;;;12.46;79.43;100892.06;10413901;28;20061;-64
2023/12/09 02:29:07;;;;;;;1999.90;999.90;;;;;;;12.85;75.07;100877.28;10414929;28;20045;-64
2023/12/09 02:34:10;;;;;;;1999.90;999.90;;;;;;;12.57;77.95;100876.44;10413964;28;20049;-64
2023/12/09 02:39:13;;;;;;;1999.90;999.90;;;;;;;12.34;75.71;100877.91;10413702;28;20045;-64
2023/12/09 02:44:15;;;;;;;1999.90;999.90;;;;;;;12.36;75.39;100883.06;10416040;28;20045;-64
2023/12/09 02:49:18;;;;;;;1999.90;999.90;;;;;;;12.73;76.00;100881.53;10421736;28;20507;-64
2023/12/09 02:54:20;;;;;;;1999.90;999.90;;;;;;;12.22;75.59;100878.69;10422767;28;20065;-64
2023/12/09 02:59:23;;;;;;;1999.90;999.90;;;;;;;12.31;75.59;100879.91;10422504;28;20041;-65
2023/12/09 03:04:26;;;;;;;1999.90;999.90;;;;;;;11.91;76.53;100854.34;10421211;28;20050;-64
2023/12/09 03:09:29;;;;;;;1999.90;999.90;;;;;;;11.17;79.05;100861.41;10421177;28;20045;-64
2023/12/09 03:14:31;;;;;;;1999.90;999.90;;;;;;;11.51;82.57;100854.97;10422077;28;20050;-64
2023/12/09 03:19:34;;;;;;;1999.90;999.90;;;;;;;12.02;79.66;100841.41;10421936;28;20046;-64
2023/12/09 03:24:36;;;;;;;1999.90;999.90;;;;;;;11.18;82.42;100838.66;10421500;28;20056;-64
2023/12/09 03:29:40;;;;;;;1999.90;999.90;;;;;;;11.94;78.48;100833.19;10420556;28;20053;-64
2023/12/09 03:34:44;;;;;;;1999.90;999.90;;;;;;;12.05;78.64;100832.50;10421420;28;20081;-64
2023/12/09 03:39:46;;;;;;;1999.90;999.90;;;;;;;11.41;78.72;100834.66;10419949;28;20046;-64
2023/12/09 03:44:49;;;;;;;1999.90;999.90;;;;;;;11.95;76.62;100841.88;10421096;28;20053;-64
2023/12/09 03:49:51;;;;;;;1999.90;999.90;;;;;;;11.87;78.39;100842.34;10420590;28;20053;-64
2023/12/09 03:54:54;;;;;;;1999.90;999.90;;;;;;;11.47;79.97;100839.53;10420700;28;20045;-64
2023/12/09 03:59:56;;;;;;;1999.90;999.90;;;;;;;11.99;75.08;100831.13;10419638;28;20081;-64
2023/12/09 04:04:58;;;;;;;1999.90;999.90;;;;;;;11.70;76.01;100833.75;10420084;28;20412;-65
2023/12/09 04:10:01;;;;;;;1999.90;999.90;;;;;;;11.27;79.51;100836.34;10418972;28;20076;-64
2023/12/09 04:15:04;;;;;;;1999.90;999.90;;;;;;;11.77;80.72;100821.09;10419631;28;20057;-64
2023/12/09 04:20:08;;;;;;;1999.90;999.90;;;;;;;11.72;81.37;100812.66;10419679;28;20052;-64
2023/12/09 04:25:11;;;;;;;1999.90;999.90;;;;;;;11.26;81.50;100794.47;10417955;28;20057;-64
2023/12/09 04:30:13;;;;;;;1999.90;999.90;;;;;;;11.58;79.22;100791.69;10419368;28;20041;-64
2023/12/09 04:35:16;;;;;;;1999.90;999.90;;;;;;;11.36;78.56;100779.06;10418941;28;20378;-64
2023/12/09 04:40:18;;;;;;;1999.90;999.90;;;;;;;11.54;78.56;100788.41;10430908;23;20075;-65
2023/12/09 04:45:20;;;;;;;1999.90;999.90;;;;;;;11.73;78.07;100795.97;10418793;28;20053;-65
2023/12/09 04:50:23;;;;;;;1999.90;999.90;;;;;;;11.21;79.78;100789.50;10418451;28;20124;-65
2023/12/09 04:55:26;;;;;;;1999.90;999.90;;;;;;;11.50;78.53;100792.16;10417296;28;20053;-65
2023/12/09 05:00:28;;;;;;;1999.90;999.90;;;;;;;11.52;77.99;100782.44;10416719;28;20526;-65
2023/12/09 05:05:31;;;;;;;1999.90;999.90;;;;;;;11.76;74.71;100774.81;10417733;28;20443;-65
2023/12/09 05:10:33;;;;;;;1999.90;999.90;;;;;;;11.66;76.71;100774.53;10415572;28;20095;-65
2023/12/09 05:15:35;;;;;;;1999.90;999.90;;;;;;;11.07;79.34;100766.75;10416291;28;20136;-65
2023/12/09 05:20:38;;;;;;;1999.90;999.90;;;;;;;11.53;76.97;100760.50;10417225;28;20056;-65
2023/12/09 05:25:41;;;;;;;1999.90;999.90;;;;;;;11.37;77.96;100752.75;10416912;28;20049;-65
2023/12/09 05:30:44;;;;;;;1999.90;999.90;;;;;;;11.03;79.49;100751.31;10415892;28;20076;-65
2023/12/09 05:35:46;;;;;;;1999.90;999.90;;;;;;;10.66;80.72;100754.34;10416717;28;20084;-65
2023/12/09 05:40:48;;;;;;;1999.90;999.90;;;;;;;10.87;81.34;100756.63;10416398;28;20057;-65
2023/12/09 05:45:51;;;;;;;1999.90;999.90;;;;;;;11.26;77.48;100739.44;10416413;28;20075;-64
2023/12/09 05:50:53;;;;;;;1999.90;999.90;;;;;;;11.32;78.00;100728.59;10416048;28;20048;-65
2023/12/09 05:55:55;;;;;;;1999.90;999.90;;;;;;;11.17;78.56;100725.13;10416133;28;20045;-65
2023/12/09 06:01:00;;;;;;;1999.90;999.90;;;;;;;10.79;80.61;100730.88;10415742;28;20052;-65
2023/12/09 06:06:03;;;;;;;1999.90;999.90;;;;;;;10.59;79.49;100734.69;10415848;28;20057;-65
2023/12/09 06:11:06;;;;;;;1999.90;999.90;;;;;;;11.13;78.92;100724.47;10415412;28;20051;-65
2023/12/09 06:16:08;;;;;;;1999.90;999.90;;;;;;;10.96;78.71;100712.41;10415351;28;20045;-65
2023/12/09 06:21:22;;;;;;;1999.90;999.90;;;;;;;10.63;81.25;100717.88;10415003;28;20056;-65
2023/12/09 06:26:24;;;;;;;1999.90;999.90;;;;;;;10.85;79.00;100700.91;10413901;28;20535;-65
2023/12/09 06:31:27;;;;;;;1999.90;999.90;;;;;;;10.62;76.58;100695.22;10415208;28;20075;-65
2023/12/09 06:36:29;;;;;;;1999.90;999.90;;;;;;;10.83;77.83;100685.28;10414872;28;20091;-65
2023/12/09 06:41:31;;;;;;;1999.90;999.90;;;;;;;10.48;79.99;100685.59;10414819;28;20220;-65
2023/12/09 06:46:38;;;;;;;1999.90;999.90;;;;;;;10.82;80.34;100686.19;10413529;28;20053;-65
2023/12/09 06:51:42;;;;;;;1999.90;999.90;;;;;;;11.02;79.72;100679.75;10414633;28;20492;-65
2023/12/09 06:56:45;;;;;;;1999.90;999.90;;;;;;;11.55;77.44;100669.50;10414905;28;20057;-65
2023/12/09 07:01:49;;;;;;;1999.90;999.90;;;;;;;11.07;80.08;100648.03;10414667;28;20046;-65
2023/12/09 07:06:51;;;;;;;1999.90;999.90;;;;;;;10.91;79.47;100641.13;10414622;28;20118;-65
2023/12/09 07:11:54;;;;;;;1999.90;999.90;;;;;;;10.93;79.35;100634.00;10413055;28;20052;-65
2023/12/09 07:17:04;;;;;;;1999.90;999.90;;;;;;;11.17;76.77;100615.06;10414410;28;20049;-65
2023/12/09 07:22:06;;;;;;;1999.90;999.90;;;;;;;10.76;77.74;100611.47;10413936;28;20092;-65
2023/12/09 07:27:08;;;;;;;1999.90;999.90;;;;;;;11.18;79.49;100589.72;10414466;28;20124;-65
2023/12/09 07:32:11;;;;;;;1999.90;999.90;;;;;;;11.18;78.49;100589.72;10416481;28;20042;-65
2023/12/09 07:37:14;;;;;;;1999.90;999.90;;;;;;;11.02;78.84;100581.97;10421085;28;20124;-65
2023/12/09 07:42:17;;;;;;;1999.90;999.90;;;;;;;11.62;77.44;100579.00;10421213;28;20042;-65
2023/12/09 07:47:19;;;;;;;1999.90;999.90;;;;;;;11.11;79.14;100579.63;10420999;28;20045;-65
2023/12/09 07:52:22;;;;;;;1999.90;999.90;;;;;;;11.67;76.89;100563.81;10419470;28;20400;-65
2023/12/09 07:57:24;;;;;;;1999.90;999.90;;;;;;;10.53;80.47;100554.44;10420630;28;20056;-66
2023/12/09 08:02:26;;;;;;;1999.90;999.90;;;;;;;11.86;77.21;100534.56;10420232;28;20048;-65
2023/12/09 08:07:29;;;;;;;1999.90;999.90;;;;;;;11.08;79.85;100542.31;10419121;28;20049;-65
2023/12/09 08:12:32;;;;;;;1999.90;999.90;;;;;;;11.33;78.03;100539.78;10419936;28;20053;-65
2023/12/09 08:17:34;;;;;;;1999.90;999.90;;;;;;;10.99;80.78;100542.88;10419649;28;20049;-65
2023/12/09 08:22:38;;;;;;;1999.90;999.90;;;;;;;11.45;78.59;100543.41;10401992;28;20045;-65
2023/12/09 08:27:41;;;;;;;1999.90;999.90;;;;;;;11.68;76.46;100541.91;10419335;28;20088;-65
2023/12/09 08:32:44;;;;;;;1999.90;999.90;;;;;;;10.99;79.20;100538.47;10401774;28;20049;-65
2023/12/09 08:37:46;;;;;;;1999.90;999.90;;;;;;;11.38;78.33;100530.78;10418774;28;20073;-65
2023/12/09 08:42:48;;;;;;;1999.90;999.90;;;;;;;11.95;77.03;100513.94;10417273;28;20403;-65
2023/12/09 08:47:51;;;;;;;1999.90;999.90;;;;;;;11.48;78.10;100513.50;10418450;28;20107;-65
2023/12/09 08:52:53;;;;;;;1999.90;999.90;;;;;;;12.00;74.67;100498.72;10418550;28;20132;-65
2023/12/09 08:57:56;;;;;;;1999.90;999.90;;;;;;;11.45;78.74;100470.00;10418244;28;20060;-65
2023/12/09 09:02:59;;;;;;;1999.90;999.90;;;;;;;12.10;77.17;100472.69;10417870;28;20053;-65
2023/12/09 09:08:01;;;;;;;1999.90;999.90;;;;;;;11.52;79.15;100466.00;10417963;28;20053;-65
2023/12/09 09:13:03;;;;;;;1999.90;999.90;;;;;;;12.15;76.53;100458.28;10417534;28;20485;-65
2023/12/09 09:18:06;;;;;;;1999.90;999.90;;;;;;;11.82;76.97;100438.66;10417598;28;20049;-65
2023/12/09 09:23:10;;;;;;;1999.90;999.90;;;;;;;13.16;72.94;100413.44;10417150;28;20048;-65
2023/12/09 09:28:13;;;;;;;1999.90;999.90;;;;;;;14.16;71.70;100397.09;10415723;28;20057;-65
2023/12/09 09:33:15;;;;;;;1999.90;999.90;;;;;;;12.68;74.09;100402.94;10416725;28;20369;-65
2023/12/09 09:38:18;;;;;;;1999.90;999.90;;;;;;;11.60;77.13;100389.47;10416327;28;20049;-65
2023/12/09 09:43:21;;;;;;;1999.90;999.90;;;;;;;12.43;75.63;100386.31;10399217;28;20050;-65
2023/12/09 09:48:25;;;;;;;1999.90;999.90;;;;;;;12.30;75.33;100374.19;10416261;28;20062;-65
2023/12/09 09:53:55;;;;;;;1999.90;999.90;;;;;;;12.57;73.91;100360.84;10415581;28;20049;-65
2023/12/09 09:58:57;;;;;;;1999.90;999.90;;;;;;;12.63;73.13;100349.91;10415818;28;20516;-65
2023/12/09 10:04:01;;;;;;;1999.90;999.90;;;;;;;12.87;72.65;100349.06;10415809;28;20124;-65
2023/12/09 10:09:04;;;;;;;1999.90;999.90;;;;;;;12.68;72.99;100313.66;10415540;28;20099;-65
2023/12/09 10:14:06;;;;;;;1999.90;999.90;;;;;;;12.50;74.30;100292.19;10414319;28;20041;-65
2023/12/09 10:19:09;;;;;;;1999.90;999.90;;;;;;;12.67;72.06;100284.88;10415403;28;20049;-65
2023/12/09 10:24:12;;;;;;;1999.90;999.90;;;;;;;12.93;71.57;100270.63;10414152;28;20045;-65
2023/12/09 10:29:14;;;;;;;1999.90;999.90;;;;;;;13.29;72.35;100260.03;10415250;28;20057;-65
2023/12/09 10:34:17;;;;;;;1999.90;999.90;;;;;;;13.20;70.00;100245.81;10413724;28;20512;-65
2023/12/09 10:39:20;;;;;;;1999.90;999.90;;;;;;;12.66;71.87;100233.28;10413445;28;20104;-65
2023/12/09 10:44:22;;;;;;;1999.90;999.90;;;;;;;12.50;73.08;100223.09;10414964;28;20053;-65
2023/12/09 10:49:24;;;;;;;1999.90;999.90;;;;;;;13.40;70.41;100204.84;10414554;28;20049;-65
2023/12/09 10:54:27;;;;;;;1999.90;999.90;;;;;;;13.12;71.63;100185.94;10413395;28;20081;-65
2023/12/09 10:59:31;;;;;;;1999.90;999.90;;;;;;;13.10;70.80;100155.50;10413123;28;20409;-65
2023/12/09 11:04:33;;;;;;;1999.90;999.90;;;;;;;13.95;71.00;100131.16;10413406;28;20134;-65
2023/12/09 11:09:41;;;;;;;1999.90;999.90;;;;;;;14.06;69.96;100115.34;10420921;28;20051;-65
2023/12/09 11:14:44;;;;;;;1999.90;999.90;;;;;;;14.05;69.18;100094.41;10421008;28;20112;-65
2023/12/09 11:19:46;;;;;;;1999.90;999.90;;;;;;;13.53;69.57;100081.97;10421860;28;20428;-66
2023/12/09 11:24:49;;;;;;;1999.90;999.90;;;;;;;12.67;71.00;100069.50;10421758;28;20053;-65
2023/12/09 11:29:52;;;;;;;1999.90;999.90;;;;;;;12.31;72.47;100043.34;10420300;28;20107;-65
2023/12/09 11:34:56;;;;;;;1999.90;999.90;;;;;;;13.29;70.36;100023.44;10421197;28;20378;-65
2023/12/09 11:39:58;;;;;;;1999.90;999.90;;;;;;;13.57;70.42;100014.16;10403791;28;20060;-65
2023/12/09 11:45:03;;;;;;;1999.90;999.90;;;;;;;13.50;71.00;99984.06;10419955;28;20046;-65
2023/12/09 11:50:07;;;;;;;1999.90;999.90;;;;;;;12.71;73.61;99971.97;10419842;28;20045;-65
2023/12/09 11:55:10;;;;;;;1999.90;999.90;;;;;;;12.71;74.28;99950.97;10420700;28;20088;-65
2023/12/09 12:00:13;;;;;;;1999.90;999.90;;;;;;;12.79;76.03;99934.56;10420419;28;20046;-65
2023/12/09 12:05:16;;;;;;;1999.90;999.90;;;;;;;12.67;76.25;99922.44;10419306;28;20072;-65
2023/12/09 12:10:18;;;;;;;1999.90;999.90;;;;;;;13.43;72.75;99917.16;10418959;28;20046;-65
2023/12/09 12:15:20;;;;;;;1999.90;999.90;;;;;;;13.55;75.59;99903.00;10418621;28;20049;-65
2023/12/09 12:20:23;;;;;;;1999.90;999.90;;;;;;;13.80;73.95;99861.44;10419027;28;20133;-65
2023/12/09 12:25:26;;;;;;;1999.90;999.90;;;;;;;12.75;76.76;99851.75;10419505;28;20080;-65
2023/12/09 12:30:29;;;;;;;1999.90;999.90;;;;;;;12.38;81.12;99812.72;10419435;28;20041;-65
2023/12/09 12:35:32;;;;;;;1999.90;999.90;;;;;;;13.41;75.72;99791.09;10401780;28;20053;-65
2023/12/09 12:40:35;;;;;;;1999.90;999.90;;;;;;;13.17;78.41;99786.09;10418718;28;20057;-65
2023/12/09 12:45:39;;;;;;;1999.90;999.90;;;;;;;12.97;77.35;99757.06;10418786;28;20056;-65
2023/12/09 12:50:42;;;;;;;1999.90;999.90;;;;;;;13.84;74.21;99718.16;10417219;28;20506;-65
2023/12/09 12:55:44;;;;;;;1999.90;999.90;;;;;;;12.91;76.88;99705.06;10418265;28;20506;-65
2023/12/09 13:00:54;;;;;;;1999.90;999.90;;;;;;;13.55;77.53;99679.47;10416931;28;20053;-66
2023/12/09 13:05:56;;;;;;;1999.90;999.90;;;;;;;13.87;76.27;99660.00;10417975;28;20054;-67
2023/12/09 13:10:59;;;;;;;1999.90;999.90;;;;;;;12.79;80.70;99646.50;10417959;28;20054;-66
2023/12/09 13:16:02;;;;;;;1999.90;999.90;;;;;;;13.05;80.59;99618.97;10417799;28;20091;-65
2023/12/09 13:21:06;;;;;;;1999.90;999.90;;;;;;;13.54;78.87;99605.00;10417378;28;20053;-65
2023/12/09 13:26:08;;;;;;;1999.90;999.90;;;;;;;12.67;80.94;99575.81;10417281;28;20082;-64
2023/12/09 13:31:10;;;;;;;1999.90;999.90;;;;;;;12.60;82.44;99555.31;10416189;28;20046;-65
2023/12/09 13:36:15;;;;;;;1999.90;999.90;;;;;;;12.74;82.56;99546.28;10415257;28;20088;-65
2023/12/09 13:41:17;;;;;;;1999.90;999.90;;;;;;;12.47;82.69;99531.06;10415241;28;20409;-65
2023/12/09 13:46:20;;;;;;;1999.90;999.90;;;;;;;12.74;82.49;99516.53;10416233;28;20072;-65
2023/12/09 13:51:22;;;;;;;1999.90;999.90;;;;;;;12.58;82.36;99478.47;10416124;28;20396;-65
2023/12/09 13:56:25;;;;;;;1999.90;999.90;;;;;;;12.67;82.32;99470.78;10416008;28;20459;-65
2023/12/09 14:01:27;;;;;;;1999.90;999.90;;;;;;;12.37;84.39;99440.97;10415877;28;20052;-65
2023/12/09 14:06:30;;;;;;;1999.90;999.90;;;;;;;12.54;83.64;99427.22;10415879;28;20045;-65
2023/12/09 14:11:32;;;;;;;1999.90;999.90;;;;;;;12.33;82.35;99403.66;10415573;28;20045;-65
2023/12/09 14:16:37;;;;;;;1999.90;999.90;;;;;;;12.40;84.25;99404.78;10415710;28;20076;-65
2023/12/09 14:21:40;;;;;;;1999.90;999.90;;;;;;;12.57;82.50;99397.22;10414225;28;20053;-65
2023/12/09 14:26:43;;;;;;;1999.90;999.90;;;;;;;12.74;82.86;99386.06;10415126;28;20488;-66
2023/12/09 14:31:45;;;;;;;1999.90;999.90;;;;;;;12.30;87.26;99372.44;10415179;28;20050;-65
2023/12/09 14:36:48;;;;;;;1999.90;999.90;;;;;;;12.88;80.85;99348.06;10414705;28;20489;-65
2023/12/09 14:41:50;;;;;;;1999.90;999.90;;;;;;;12.46;83.09;99322.06;10418685;28;20045;-65
2023/12/09 14:46:52;;;;;;;1999.90;999.90;;;;;;;13.04;79.98;99318.59;10422137;28;20056;-65
2023/12/09 14:51:55;;;;;;;1999.90;999.90;;;;;;;11.92;86.70;99284.78;10423189;28;20128;-65
2023/12/09 14:56:58;;;;;;;1999.90;999.90;;;;;;;12.19;85.62;99259.72;10423039;28;20108;-66
2023/12/09 15:02:00;;;;;;;1999.90;999.90;;;;;;;11.80;87.85;99236.00;10422540;28;20048;-65
2023/12/09 15:07:03;;;;;;;1999.90;999.90;;;;;;;11.44;89.63;99239.03;10422469;28;20164;-65
2023/12/09 15:12:05;;;;;;;1999.90;999.90;;;;;;;12.48;85.79;99215.13;10421217;28;20129;-66
2023/12/09 15:17:08;;;;;;;1999.90;999.90;;;;;;;11.93;88.46;99185.97;10422235;28;20095;-65
2023/12/09 15:22:12;;;;;;;1999.90;999.90;;;;;;;12.07;86.72;99170.66;10420751;28;20073;-65
2023/12/09 15:27:14;;;;;;;1999.90;999.90;;;;;;;12.20;85.28;99148.53;10421641;28;20076;-65
2023/12/09 15:32:17;;;;;;;1999.90;999.90;;;;;;;12.10;86.70;99163.47;10420508;28;20053;-65
2023/12/09 15:37:19;;;;;;;1999.90;999.90;;;;;;;12.27;84.92;99150.50;10420860;28;20488;-65
2023/12/09 15:42:22;;;;;;;1999.90;999.90;;;;;;;12.11;85.29;99134.47;10419786;28;20085;-65
2023/12/09 15:47:24;;;;;;;1999.90;999.90;;;;;;;11.55;86.81;99135.91;10420969;28;20115;-65
2023/12/09 15:52:27;;;;;;;1999.90;999.90;;;;;;;11.73;85.07;99130.81;10420131;28;20049;-65
2023/12/09 15:57:29;;;;;;;1999.90;999.90;;;;;;;12.47;85.53;99103.22;10419514;28;20096;-65
2023/12/09 16:02:35;;;;;;;1999.90;999.90;;;;;;;11.49;89.64;99079.59;10420369;28;20124;-65
2023/12/09 16:07:39;;;;;;;1999.90;999.90;;;;;;;12.43;84.39;99123.66;10419155;28;20050;-65
2023/12/09 16:12:44;;;;;;;1999.90;999.90;;;;;;;11.78;85.81;99099.78;10419002;28;20463;-65
2023/12/09 16:17:48;;;;;;;1999.90;999.90;;;;;;;11.26;91.50;99076.41;10419969;28;20477;-65
2023/12/09 16:22:50;;;;;;;1999.90;999.90;;;;;;;12.01;88.21;99055.78;10419571;28;20045;-65
2023/12/09 16:27:55;;;;;;;1999.90;999.90;;;;;;;12.13;84.64;99072.19;10419653;28;20133;-65
2023/12/09 16:32:57;;;;;;;1999.90;999.90;;;;;;;11.31;87.45;99065.50;10419235;28;20076;-65
2023/12/09 16:38:00;;;;;;;1999.90;999.90;;;;;;;11.61;87.70;99058.53;10418645;28;20115;-65
2023/12/09 16:43:03;;;;;;;1999.90;999.90;;;;;;;11.34;89.60;99062.63;10418672;28;20218;-65
2023/12/09 16:48:06;;;;;;;1999.90;999.90;;;;;;;11.71;89.12;99072.47;10417475;28;20045;-65
2023/12/09 16:53:09;;;;;;;1999.90;999.90;;;;;;;11.92;89.21;99042.66;10431194;22;20136;-67
2023/12/09 16:58:12;;;;;;;1999.90;999.90;;;;;;;12.24;86.98;99031.88;10418436;28;20059;-66
2023/12/09 17:03:14;;;;;;;1999.90;999.90;;;;;;;11.96;86.63;99018.66;10417918;28;20050;-66
2023/12/09 17:08:17;;;;;;;1999.90;999.90;;;;;;;13.35;79.33;99032.75;10416907;28;20061;-66
2023/12/09 17:13:20;;;;;;;1999.90;999.90;;;;;;;12.63;80.58;99040.44;10416508;28;20077;-66
2023/12/09 17:18:22;;;;;;;1999.90;999.90;;;;;;;12.32;82.19;99046.88;10417606;28;20060;-66
2023/12/09 17:23:27;;;;;;;1999.90;999.90;;;;;;;12.47;86.37;99034.16;10415999;28;20382;-66
2023/12/09 17:28:30;;;;;;;1999.90;999.90;;;;;;;12.52;86.19;99037.16;10417260;28;20045;-66
2023/12/09 17:33:32;;;;;;;1999.90;999.90;;;;;;;12.64;85.66;99028.13;10415738;28;20185;-66
2023/12/09 17:38:35;;;;;;;1999.90;999.90;;;;;;;12.83;83.99;99014.91;10415540;28;20049;-66
2023/12/09 17:43:38;;;;;;;1999.90;999.90;;;;;;;12.88;83.15;99019.75;10416513;28;20057;-66
2023/12/09 17:48:40;;;;;;;1999.90;999.90;;;;;;;13.20;87.24;99027.16;10416390;28;20496;-66
2023/12/09 17:53:43;;;;;;;1999.90;999.90;;;;;;;13.25;83.40;99012.75;10416283;28;20061;-66
2023/12/09 17:58:48;;;;;;;1999.90;999.90;;;;;;;12.80;84.25;99002.06;10416111;28;20151;-67
2023/12/09 18:03:50;;;;;;;1999.90;999.90;;;;;;;12.63;88.40;99016.00;10416067;28;20049;-67
2023/12/09 18:08:53;;;;;;;1999.90;999.90;;;;;;;13.43;84.43;99024.16;10415855;28;20053;-67
2023/12/09 18:13:56;;;;;;;1999.90;999.90;;;;;;;12.60;87.09;99038.09;10414409;28;20042;-67
2023/12/09 18:18:59;;;;;;;1999.90;999.90;;;;;;;13.79;83.44;99025.94;10414963;28;20443;-66
2023/12/09 18:24:03;;;;;;;1999.90;999.90;;;;;;;13.38;85.34;99021.09;10414211;28;20481;-67
2023/12/09 18:29:05;;;;;;;1999.90;999.90;;;;;;;14.47;80.22;99012.91;10414228;28;20114;-67
2023/12/09 18:34:08;;;;;;;1999.90;999.90;;;;;;;14.17;83.09;98994.94;10415173;28;20057;-67
2023/12/09 18:39:11;;;;;;;1999.90;999.90;;;;;;;14.43;79.76;99002.84;10414993;28;20045;-67
2023/12/09 18:44:13;;;;;;;1999.90;999.90;;;;;;;13.99;84.83;99014.25;10414992;28;20058;-67
2023/12/09 18:49:16;;;;;;;1999.90;999.90;;;;;;;14.32;83.77;99024.97;10414723;28;20056;-67
2023/12/09 18:54:19;;;;;;;1999.90;999.90;;;;;;;14.23;86.35;99025.91;10414420;28;20558;-67
2023/12/09 18:59:21;;;;;;;1999.90;999.90;;;;;;;14.51;84.61;99029.22;10414624;28;20049;-67
2023/12/09 19:04:25;;;;;;;1999.90;999.90;;;;;;;14.06;89.53;99046.84;10414689;28;20057;-67
2023/12/09 19:09:28;;;;;;;1999.90;999.90;;;;;;;14.34;89.58;99044.09;10414564;28;20080;-67
2023/12/09 19:14:31;;;;;;;1999.90;999.90;;;;;;;14.71;88.27;99053.53;10414633;28;20042;-67
2023/12/09 19:19:33;;;;;;;1999.90;999.90;;;;;;;14.77;87.73;99070.53;10414403;28;20080;-67
2023/12/09 19:24:35;;;;;;;1999.90;999.90;;;;;;;14.88;87.33;99085.22;10412981;28;20045;-67
2023/12/09 19:29:39;;;;;;;1999.90;999.90;;;;;;;14.37;87.96;99106.13;10418837;28;20054;-67
2023/12/09 19:34:42;;;;;;;1999.90;999.90;;;;;;;14.51;84.08;99116.09;10421484;28;20048;-67
2023/12/09 19:39:44;;;;;;;1999.90;999.90;;;;;;;14.83;82.61;99133.13;10421587;28;20103;-67
2023/12/09 19:44:47;;;;;;;1999.90;999.90;;;;;;;15.06;79.29;99146.56;10403732;28;20041;-67
2023/12/09 19:49:49;;;;;;;1999.90;999.90;;;;;;;14.06;80.33;99153.91;10420911;28;20499;-67
2023/12/09 19:54:52;;;;;;;1999.90;999.90;;;;;;;14.49;77.92;99168.06;10420633;28;20053;-67
2023/12/09 19:59:54;;;;;;;1999.90;999.90;;;;;;;14.18;77.34;99188.72;10419441;28;20052;-68
2023/12/09 20:04:57;;;;;;;1999.90;999.90;;;;;;;14.31;75.49;99195.25;10420389;28;20480;-67
2023/12/09 20:09:59;;;;;;;1999.90;999.90;;;;;;;14.31;75.06;99208.44;10420208;28;20059;-67
2023/12/09 20:15:03;;;;;;;1999.90;999.90;;;;;;;13.99;74.27;99232.63;10420044;28;20042;-67
2023/12/09 20:20:07;;;;;;;1999.90;999.90;;;;;;;13.87;73.70;99241.69;10420074;28;20049;-67
2023/12/09 20:25:09;;;;;;;1999.90;999.90;;;;;;;13.95;74.08;99244.41;10419516;28;20042;-67
2023/12/09 20:30:12;;;;;;;1999.90;999.90;;;;;;;14.26;71.78;99258.06;10419657;28;20081;-67
2023/12/09 20:35:14;;;;;;;1999.90;999.90;;;;;;;14.16;71.57;99273.09;10418059;28;20049;-67
2023/12/09 20:40:17;;;;;;;1999.90;999.90;;;;;;;13.37;74.60;99285.78;10417149;28;20046;-67
2023/12/09 20:45:20;;;;;;;1999.90;999.90;;;;;;;14.07;71.87;99298.50;10418980;28;20073;-67
2023/12/09 20:50:23;;;;;;;1999.90;999.90;;;;;;;14.73;71.39;99309.72;10418737;28;20060;-67
2023/12/09 20:55:26;;;;;;;1999.90;999.90;;;;;;;14.28;72.15;99315.84;10417138;28;20412;-67
2023/12/09 21:00:29;;;;;;;1999.90;999.90;;;;;;;14.04;72.95;99329.56;10418324;28;20049;-67
2023/12/09 21:05:31;;;;;;;1999.90;999.90;;;;;;;14.18;73.16;99350.09;10417966;28;20408;-67
2023/12/09 21:10:33;;;;;;;1999.90;999.90;;;;;;;14.22;70.66;99354.13;10417736;28;20412;-67
2023/12/09 21:15:36;;;;;;;1999.90;999.90;;;;;;;14.40;70.07;99353.31;10400700;28;20052;-67
2023/12/09 21:20:41;;;;;;;1999.90;999.90;;;;;;;13.96;71.68;99368.91;10417578;28;20065;-67
2023/12/09 21:25:43;;;;;;;1999.90;999.90;;;;;;;14.16;70.91;99377.56;10416010;28;20084;-67
2023/12/09 21:30:46;;;;;;;1999.90;999.90;;;;;;;14.39;69.61;99385.88;10415861;28;20051;-67
2023/12/09 21:35:48;;;;;;;1999.90;999.90;;;;;;;14.58;69.08;99388.41;10415739;28;20057;-67
2023/12/09 21:40:50;;;;;;;1999.90;999.90;;;;;;;14.65;68.95;99409.75;10416678;28;20111;-67
2023/12/09 21:45:53;;;;;;;1999.90;999.90;;;;;;;14.53;68.95;99422.25;10415372;28;20057;-67
2023/12/09 21:50:57;;;;;;;1999.90;999.90;;;;;;;13.82;71.11;99422.81;10415611;28;20563;-67
2023/12/09 21:55:59;;;;;;;1999.90;999.90;;;;;;;14.23;68.47;99436.53;10415971;28;20081;-68
2023/12/09 22:01:02;;;;;;;1999.90;999.90;;;;;;;13.89;70.06;99451.03;10415916;28;20053;-66